Contact Us - Flying Club related Information

Contact

Contact-image

Enquiries for all Trim Flying Club related items - Intro Flights, Membership, PPL, Vouchers, Birthdays

Address:
Trim Flying Club
Dunganny
Trim Co Meath
Ireland

As Trim Flying Club is a part time organisation, there may not always be someone on-site at the airfield.

We will deal with flying related queries only.

Attention: Do not contact us if you are a third party enquiring about search engine optimisation.

Mobile: MOBILE - 086 826 0850 Brian / 087 397 9047 Vincent

http://www.trimflyingclub.ie

Contact Form

Send an email. All fields with an * are required.

Other information

Other information:

Please us this Contact Form to enquire about Intro Flights, Club Membership, Learning to Fly and all Club related material at Trim Flying Club

Trim Flying Club goes to the Aran Islands

Learn to fly at Trim Flying Club

Rainfall Radar Now

Atlantic Charts Pressure - Today

Atlantic Charts Rainfall - Today

 
 

Atlantic Charts Pressure - Tomorrow

Sunrise Sunset

Click for Dublin, Ireland Forecast

Aviation WX Dublin EIDW

[source: ADDS]
METAR
EIDW 202030Z 02017KT 9999 FEW005 BKN050 11/07 Q1008 NOSIG =
TAF
TAF EIDW 201700Z 2018/2118 02015G25KT 9999 SCT020 TEMPO 2023/2107 5000 -RA BKN010 BECMG 2106/2108 08013KT PROB30 TEMPO 2114/2118 5000 -RA BKN010 =